עמוד ראשי
METAR-TAF:

METAR-TAF

שדות תעופה :

Boca Raton, פלורידה, ארצות הברית

קו רוחב: 26-22-43N, קו אורך: 080-06-28W, גובה: 4מטר

תצפית מזג אוויר נוכחית

הדו"ח נערך לפני 1 שעות ו 11דקות, בשעה 15:53 UTC
רוח 12קשר מכיוון מזרח עם משבים עד 20קשר
טמפרטורת 30 צלסיוס
לחות 70%
לחץ 1017 hPa
ראות: 16.1קילומטר
מעט עננים בגובה 3500רגל

METAR: KBCT 171553Z 10012G20KT 10SM FEW035 30/24 A3003

זמן: 13:04 (17:04 UTC)


TAF: חסר

תצפיות ותחזיות מזג אוויר לגבי יותר מ- 4,000 שדות תעופה ברחבי העולם. דוחות METAR ו- TAF.

התחנות הזמינות מסומנות בנקודות צהובות ואדומות על גבי המפה.

העבר את העכבר לנקודה הצבעונית על מנת לראות את שם התחנה.

לאחר מכן, לחץ כדי לראות את תוכן ואת תחזיות מזג האוויר.

כדי לשנות את המפה: לחץ על הכפתורים הירוקים עם הפלוס השחור כדי להתקרב; על הכפתור הירוק עם המקף כדי להתרחק; או בחיצים הירוקים למפות סמוכות.


METAR-TAF: